sensor_id;sensor_type;location;lat;lon;timestamp;temperature;humidity
45983;DHT22;31711;47.158;7.346;2023-03-19T00:02:08;9.00;99.90
45983;DHT22;31711;47.158;7.346;2023-03-19T00:04:40;9.00;99.90
45983;DHT22;31711;47.158;7.346;2023-03-19T00:07:06;9.10;99.90
45983;DHT22;31711;47.158;7.346;2023-03-19T00:09:39;9.10;99.90
45983;DHT22;31711;47.158;7.346;2023-03-19T00:12:06;9.30;99.90
45983;DHT22;31711;47.158;7.346;2023-03-19T00:14:32;9.70;99.90
45983;DHT22;31711;47.158;7.346;2023-03-19T00:16:58;9.90;99.90
45983;DHT22;31711;47.158;7.346;2023-03-19T00:19:24;10.00;99.90
45983;DHT22;31711;47.158;7.346;2023-03-19T00:21:51;10.20;99.90
45983;DHT22;31711;47.158;7.346;2023-03-19T00:24:17;10.30;99.90
45983;DHT22;31711;47.158;7.346;2023-03-19T00:26:46;10.30;99.90
45983;DHT22;31711;47.158;7.346;2023-03-19T00:29:12;10.40;99.90
45983;DHT22;31711;47.158;7.346;2023-03-19T00:31:39;10.40;99.90
45983;DHT22;31711;47.158;7.346;2023-03-19T00:34:07;10.40;99.90
45983;DHT22;31711;47.158;7.346;2023-03-19T00:36:33;10.40;99.90
45983;DHT22;31711;47.158;7.346;2023-03-19T00:38:59;10.30;99.90
45983;DHT22;31711;47.158;7.346;2023-03-19T00:41:28;10.40;99.90
45983;DHT22;31711;47.158;7.346;2023-03-19T00:43:55;10.30;99.90
45983;DHT22;31711;47.158;7.346;2023-03-19T00:46:22;10.30;99.90
45983;DHT22;31711;47.158;7.346;2023-03-19T00:48:48;10.30;99.90
45983;DHT22;31711;47.158;7.346;2023-03-19T00:51:15;10.30;99.90
45983;DHT22;31711;47.158;7.346;2023-03-19T00:53:42;10.20;99.90
45983;DHT22;31711;47.158;7.346;2023-03-19T00:56:13;10.20;99.90
45983;DHT22;31711;47.158;7.346;2023-03-19T00:58:39;10.10;99.90
45983;DHT22;31711;47.158;7.346;2023-03-19T01:01:13;10.10;99.90
45983;DHT22;31711;47.158;7.346;2023-03-19T01:03:40;10.10;99.90
45983;DHT22;31711;47.158;7.346;2023-03-19T01:06:06;10.00;99.90
45983;DHT22;31711;47.158;7.346;2023-03-19T01:08:32;9.80;99.90
45983;DHT22;31711;47.158;7.346;2023-03-19T01:11:10;9.80;99.90
45983;DHT22;31711;47.158;7.346;2023-03-19T01:13:37;9.80;99.90
45983;DHT22;31711;47.158;7.346;2023-03-19T01:16:04;9.80;99.90
45983;DHT22;31711;47.158;7.346;2023-03-19T01:18:30;9.90;99.90
45983;DHT22;31711;47.158;7.346;2023-03-19T01:20:56;9.90;99.90
45983;DHT22;31711;47.158;7.346;2023-03-19T01:23:25;9.90;99.90
45983;DHT22;31711;47.158;7.346;2023-03-19T01:25:52;9.90;99.90
45983;DHT22;31711;47.158;7.346;2023-03-19T01:28:19;9.90;99.90
45983;DHT22;31711;47.158;7.346;2023-03-19T01:30:45;9.90;99.90
45983;DHT22;31711;47.158;7.346;2023-03-19T01:33:11;9.90;99.90
45983;DHT22;31711;47.158;7.346;2023-03-19T01:35:40;9.80;99.90
45983;DHT22;31711;47.158;7.346;2023-03-19T01:38:08;9.80;99.90
45983;DHT22;31711;47.158;7.346;2023-03-19T01:40:34;9.80;99.90
45983;DHT22;31711;47.158;7.346;2023-03-19T01:45:40;9.80;99.90
45983;DHT22;31711;47.158;7.346;2023-03-19T01:48:27;9.70;99.90
45983;DHT22;31711;47.158;7.346;2023-03-19T01:50:53;9.70;99.90
45983;DHT22;31711;47.158;7.346;2023-03-19T01:53:27;9.70;99.90
45983;DHT22;31711;47.158;7.346;2023-03-19T01:55:58;9.70;99.90
45983;DHT22;31711;47.158;7.346;2023-03-19T01:58:31;9.60;99.90
45983;DHT22;31711;47.158;7.346;2023-03-19T02:00:57;9.50;99.90
45983;DHT22;31711;47.158;7.346;2023-03-19T02:03:24;9.60;99.90
45983;DHT22;31711;47.158;7.346;2023-03-19T02:05:55;9.60;99.90
45983;DHT22;31711;47.158;7.346;2023-03-19T02:08:23;9.70;99.90
45983;DHT22;31711;47.158;7.346;2023-03-19T02:10:57;9.70;99.90
45983;DHT22;31711;47.158;7.346;2023-03-19T02:13:28;9.60;99.90
45983;DHT22;31711;47.158;7.346;2023-03-19T02:16:03;9.70;99.90
45983;DHT22;31711;47.158;7.346;2023-03-19T02:18:32;9.70;99.90
45983;DHT22;31711;47.158;7.346;2023-03-19T02:21:08;9.50;99.90
45983;DHT22;31711;47.158;7.346;2023-03-19T02:23:54;9.50;99.90
45983;DHT22;31711;47.158;7.346;2023-03-19T02:26:25;9.50;99.90
45983;DHT22;31711;47.158;7.346;2023-03-19T02:28:53;9.60;99.90
45983;DHT22;31711;47.158;7.346;2023-03-19T02:31:20;9.50;99.90
45983;DHT22;31711;47.158;7.346;2023-03-19T02:36:48;9.50;99.90
45983;DHT22;31711;47.158;7.346;2023-03-19T02:39:29;9.50;99.90
45983;DHT22;31711;47.158;7.346;2023-03-19T02:41:57;9.40;99.90
45983;DHT22;31711;47.158;7.346;2023-03-19T02:44:23;9.30;99.90
45983;DHT22;31711;47.158;7.346;2023-03-19T02:46:51;9.20;99.90
45983;DHT22;31711;47.158;7.346;2023-03-19T02:49:17;9.30;99.90
45983;DHT22;31711;47.158;7.346;2023-03-19T02:51:43;9.30;99.90
45983;DHT22;31711;47.158;7.346;2023-03-19T02:54:10;9.20;99.90
45983;DHT22;31711;47.158;7.346;2023-03-19T02:56:36;9.10;99.90
45983;DHT22;31711;47.158;7.346;2023-03-19T02:59:02;9.20;99.90
45983;DHT22;31711;47.158;7.346;2023-03-19T03:01:28;9.20;99.90
45983;DHT22;31711;47.158;7.346;2023-03-19T03:03:54;9.10;99.90
45983;DHT22;31711;47.158;7.346;2023-03-19T03:06:21;9.10;99.90
45983;DHT22;31711;47.158;7.346;2023-03-19T03:08:47;9.10;99.90
45983;DHT22;31711;47.158;7.346;2023-03-19T03:11:13;9.10;99.90
45983;DHT22;31711;47.158;7.346;2023-03-19T03:13:39;9.00;99.90
45983;DHT22;31711;47.158;7.346;2023-03-19T03:16:05;9.10;99.90
45983;DHT22;31711;47.158;7.346;2023-03-19T03:18:32;9.20;99.90
45983;DHT22;31711;47.158;7.346;2023-03-19T03:20:57;9.20;99.90
45983;DHT22;31711;47.158;7.346;2023-03-19T03:23:23;9.10;99.90
45983;DHT22;31711;47.158;7.346;2023-03-19T03:25:50;9.10;99.90
45983;DHT22;31711;47.158;7.346;2023-03-19T03:28:17;9.00;99.90
45983;DHT22;31711;47.158;7.346;2023-03-19T03:30:44;9.00;99.90
45983;DHT22;31711;47.158;7.346;2023-03-19T03:33:11;9.00;99.90
45983;DHT22;31711;47.158;7.346;2023-03-19T03:35:37;9.00;99.90
45983;DHT22;31711;47.158;7.346;2023-03-19T03:38:03;9.00;99.90
45983;DHT22;31711;47.158;7.346;2023-03-19T03:40:29;9.10;99.90
45983;DHT22;31711;47.158;7.346;2023-03-19T03:42:56;9.10;99.90
45983;DHT22;31711;47.158;7.346;2023-03-19T03:45:22;9.10;99.90
45983;DHT22;31711;47.158;7.346;2023-03-19T03:47:48;9.10;99.90
45983;DHT22;31711;47.158;7.346;2023-03-19T03:50:14;9.10;99.90
45983;DHT22;31711;47.158;7.346;2023-03-19T03:52:40;9.10;99.90
45983;DHT22;31711;47.158;7.346;2023-03-19T03:55:07;9.10;99.90
45983;DHT22;31711;47.158;7.346;2023-03-19T03:57:34;9.10;99.90
45983;DHT22;31711;47.158;7.346;2023-03-19T04:00:00;9.00;99.90
45983;DHT22;31711;47.158;7.346;2023-03-19T04:02:26;9.00;99.90
45983;DHT22;31711;47.158;7.346;2023-03-19T04:04:52;8.90;99.90
45983;DHT22;31711;47.158;7.346;2023-03-19T04:07:19;8.90;99.90
45983;DHT22;31711;47.158;7.346;2023-03-19T04:09:45;8.90;99.90
45983;DHT22;31711;47.158;7.346;2023-03-19T04:12:12;8.90;99.90
45983;DHT22;31711;47.158;7.346;2023-03-19T04:14:39;8.80;99.90
45983;DHT22;31711;47.158;7.346;2023-03-19T04:17:05;8.80;99.90
45983;DHT22;31711;47.158;7.346;2023-03-19T04:19:31;8.80;99.90
45983;DHT22;31711;47.158;7.346;2023-03-19T04:21:57;8.80;99.90
45983;DHT22;31711;47.158;7.346;2023-03-19T04:24:24;8.80;99.90
45983;DHT22;31711;47.158;7.346;2023-03-19T04:26:50;8.80;99.90
45983;DHT22;31711;47.158;7.346;2023-03-19T04:29:17;8.80;99.90
45983;DHT22;31711;47.158;7.346;2023-03-19T04:31:44;8.80;99.90
45983;DHT22;31711;47.158;7.346;2023-03-19T04:34:10;8.90;99.90
45983;DHT22;31711;47.158;7.346;2023-03-19T04:36:37;8.90;99.90
45983;DHT22;31711;47.158;7.346;2023-03-19T04:39:04;8.80;99.90
45983;DHT22;31711;47.158;7.346;2023-03-19T04:41:30;8.80;99.90
45983;DHT22;31711;47.158;7.346;2023-03-19T04:43:56;8.70;99.90
45983;DHT22;31711;47.158;7.346;2023-03-19T04:46:22;8.70;99.90
45983;DHT22;31711;47.158;7.346;2023-03-19T04:48:48;8.70;99.90
45983;DHT22;31711;47.158;7.346;2023-03-19T04:51:13;8.70;99.90
45983;DHT22;31711;47.158;7.346;2023-03-19T04:53:41;8.70;99.90
45983;DHT22;31711;47.158;7.346;2023-03-19T04:56:07;8.60;99.90
45983;DHT22;31711;47.158;7.346;2023-03-19T04:58:33;8.60;99.90
45983;DHT22;31711;47.158;7.346;2023-03-19T05:00:59;8.60;99.90
45983;DHT22;31711;47.158;7.346;2023-03-19T05:03:25;8.60;99.90
45983;DHT22;31711;47.158;7.346;2023-03-19T05:05:52;8.60;99.90
45983;DHT22;31711;47.158;7.346;2023-03-19T05:08:19;8.70;99.90
45983;DHT22;31711;47.158;7.346;2023-03-19T05:10:45;8.70;99.90
45983;DHT22;31711;47.158;7.346;2023-03-19T05:13:11;8.60;99.90
45983;DHT22;31711;47.158;7.346;2023-03-19T05:15:41;8.60;99.90
45983;DHT22;31711;47.158;7.346;2023-03-19T05:18:07;8.70;99.90
45983;DHT22;31711;47.158;7.346;2023-03-19T05:20:33;8.60;99.90
45983;DHT22;31711;47.158;7.346;2023-03-19T05:23:00;8.70;99.90
45983;DHT22;31711;47.158;7.346;2023-03-19T05:25:26;8.60;99.90
45983;DHT22;31711;47.158;7.346;2023-03-19T05:27:52;8.60;99.90
45983;DHT22;31711;47.158;7.346;2023-03-19T05:30:18;8.60;99.90
45983;DHT22;31711;47.158;7.346;2023-03-19T05:32:44;8.60;99.90
45983;DHT22;31711;47.158;7.346;2023-03-19T05:35:11;8.60;99.90
45983;DHT22;31711;47.158;7.346;2023-03-19T05:37:38;8.60;99.90
45983;DHT22;31711;47.158;7.346;2023-03-19T05:40:05;8.50;99.90
45983;DHT22;31711;47.158;7.346;2023-03-19T05:42:31;8.40;99.90
45983;DHT22;31711;47.158;7.346;2023-03-19T05:44:57;8.30;99.90
45983;DHT22;31711;47.158;7.346;2023-03-19T05:47:23;8.20;99.90
45983;DHT22;31711;47.158;7.346;2023-03-19T05:49:49;8.20;99.90
45983;DHT22;31711;47.158;7.346;2023-03-19T05:52:15;8.20;99.90
45983;DHT22;31711;47.158;7.346;2023-03-19T05:54:41;8.00;99.90
45983;DHT22;31711;47.158;7.346;2023-03-19T05:57:07;8.00;99.90
45983;DHT22;31711;47.158;7.346;2023-03-19T05:59:34;8.10;99.90
45983;DHT22;31711;47.158;7.346;2023-03-19T06:02:00;8.20;99.90
45983;DHT22;31711;47.158;7.346;2023-03-19T06:04:26;8.20;99.90
45983;DHT22;31711;47.158;7.346;2023-03-19T06:06:52;8.20;99.90
45983;DHT22;31711;47.158;7.346;2023-03-19T06:09:19;8.30;99.90
45983;DHT22;31711;47.158;7.346;2023-03-19T06:11:44;8.40;99.90
45983;DHT22;31711;47.158;7.346;2023-03-19T06:14:10;8.40;99.90
45983;DHT22;31711;47.158;7.346;2023-03-19T06:16:36;8.40;99.90
45983;DHT22;31711;47.158;7.346;2023-03-19T06:19:02;8.40;99.90
45983;DHT22;31711;47.158;7.346;2023-03-19T06:21:28;8.40;99.90
45983;DHT22;31711;47.158;7.346;2023-03-19T06:23:56;8.30;99.90
45983;DHT22;31711;47.158;7.346;2023-03-19T06:26:22;8.40;99.90
45983;DHT22;31711;47.158;7.346;2023-03-19T06:28:48;8.40;99.90
45983;DHT22;31711;47.158;7.346;2023-03-19T06:31:14;8.50;99.90
45983;DHT22;31711;47.158;7.346;2023-03-19T06:33:40;8.60;99.90
45983;DHT22;31711;47.158;7.346;2023-03-19T06:36:07;8.70;99.90
45983;DHT22;31711;47.158;7.346;2023-03-19T06:38:33;8.60;99.90
45983;DHT22;31711;47.158;7.346;2023-03-19T06:41:01;8.60;99.90
45983;DHT22;31711;47.158;7.346;2023-03-19T06:43:28;8.60;99.90
45983;DHT22;31711;47.158;7.346;2023-03-19T06:45:54;8.70;99.90
45983;DHT22;31711;47.158;7.346;2023-03-19T06:48:20;8.80;99.90
45983;DHT22;31711;47.158;7.346;2023-03-19T06:50:46;8.70;99.90
45983;DHT22;31711;47.158;7.346;2023-03-19T06:53:15;8.80;99.90
45983;DHT22;31711;47.158;7.346;2023-03-19T06:55:41;9.00;99.90
45983;DHT22;31711;47.158;7.346;2023-03-19T06:58:10;9.20;99.90
45983;DHT22;31711;47.158;7.346;2023-03-19T07:00:36;9.20;99.90
45983;DHT22;31711;47.158;7.346;2023-03-19T07:03:02;9.30;99.90
45983;DHT22;31711;47.158;7.346;2023-03-19T07:05:28;9.40;99.90
45983;DHT22;31711;47.158;7.346;2023-03-19T07:07:54;9.40;99.90
45983;DHT22;31711;47.158;7.346;2023-03-19T07:10:20;9.50;99.90
45983;DHT22;31711;47.158;7.346;2023-03-19T07:12:46;9.60;99.90
45983;DHT22;31711;47.158;7.346;2023-03-19T07:15:12;9.60;99.90
45983;DHT22;31711;47.158;7.346;2023-03-19T07:17:39;9.60;99.90
45983;DHT22;31711;47.158;7.346;2023-03-19T07:20:05;9.50;99.90
45983;DHT22;31711;47.158;7.346;2023-03-19T07:22:31;9.50;99.90
45983;DHT22;31711;47.158;7.346;2023-03-19T07:24:57;9.50;99.90
45983;DHT22;31711;47.158;7.346;2023-03-19T07:27:23;9.70;99.90
45983;DHT22;31711;47.158;7.346;2023-03-19T07:29:49;9.80;99.90
45983;DHT22;31711;47.158;7.346;2023-03-19T07:32:15;9.90;99.90
45983;DHT22;31711;47.158;7.346;2023-03-19T07:34:41;10.00;99.90
45983;DHT22;31711;47.158;7.346;2023-03-19T07:37:07;10.10;99.90
45983;DHT22;31711;47.158;7.346;2023-03-19T07:39:33;10.20;99.90
45983;DHT22;31711;47.158;7.346;2023-03-19T07:41:59;10.40;99.90
45983;DHT22;31711;47.158;7.346;2023-03-19T07:44:25;10.50;99.90
45983;DHT22;31711;47.158;7.346;2023-03-19T07:46:51;10.50;99.90
45983;DHT22;31711;47.158;7.346;2023-03-19T07:49:17;10.60;99.90
45983;DHT22;31711;47.158;7.346;2023-03-19T07:51:43;10.60;99.90
45983;DHT22;31711;47.158;7.346;2023-03-19T07:54:09;10.80;99.90
45983;DHT22;31711;47.158;7.346;2023-03-19T07:56:35;11.00;99.90
45983;DHT22;31711;47.158;7.346;2023-03-19T07:59:01;11.00;99.90
45983;DHT22;31711;47.158;7.346;2023-03-19T08:01:27;11.00;99.90
45983;DHT22;31711;47.158;7.346;2023-03-19T08:03:52;11.00;99.90
45983;DHT22;31711;47.158;7.346;2023-03-19T08:06:18;11.00;99.90
45983;DHT22;31711;47.158;7.346;2023-03-19T08:08:45;11.10;99.90
45983;DHT22;31711;47.158;7.346;2023-03-19T08:11:10;11.10;99.90
45983;DHT22;31711;47.158;7.346;2023-03-19T08:13:37;11.10;99.90
45983;DHT22;31711;47.158;7.346;2023-03-19T08:16:03;11.20;99.90
45983;DHT22;31711;47.158;7.346;2023-03-19T08:18:29;11.40;99.90
45983;DHT22;31711;47.158;7.346;2023-03-19T08:20:54;11.50;99.90
45983;DHT22;31711;47.158;7.346;2023-03-19T08:23:20;11.40;99.90
45983;DHT22;31711;47.158;7.346;2023-03-19T08:25:47;11.00;99.90
45983;DHT22;31711;47.158;7.346;2023-03-19T08:28:16;11.20;99.90
45983;DHT22;31711;47.158;7.346;2023-03-19T08:30:42;11.60;99.90
45983;DHT22;31711;47.158;7.346;2023-03-19T08:33:08;11.60;99.90
45983;DHT22;31711;47.158;7.346;2023-03-19T08:35:34;11.60;99.90
45983;DHT22;31711;47.158;7.346;2023-03-19T08:38:00;11.70;99.90
45983;DHT22;31711;47.158;7.346;2023-03-19T08:40:26;11.70;99.90
45983;DHT22;31711;47.158;7.346;2023-03-19T08:42:53;11.80;99.90
45983;DHT22;31711;47.158;7.346;2023-03-19T08:45:20;11.80;99.90
45983;DHT22;31711;47.158;7.346;2023-03-19T08:47:47;11.90;99.90
45983;DHT22;31711;47.158;7.346;2023-03-19T08:50:13;11.50;99.90
45983;DHT22;31711;47.158;7.346;2023-03-19T08:52:40;11.70;99.90
45983;DHT22;31711;47.158;7.346;2023-03-19T08:55:07;11.70;99.90
45983;DHT22;31711;47.158;7.346;2023-03-19T08:57:34;12.00;99.90
45983;DHT22;31711;47.158;7.346;2023-03-19T09:00:01;12.00;99.90
45983;DHT22;31711;47.158;7.346;2023-03-19T09:02:29;12.10;99.90
45983;DHT22;31711;47.158;7.346;2023-03-19T09:04:55;12.30;99.90
45983;DHT22;31711;47.158;7.346;2023-03-19T09:07:21;12.50;99.90
45983;DHT22;31711;47.158;7.346;2023-03-19T09:09:47;12.70;99.90
45983;DHT22;31711;47.158;7.346;2023-03-19T09:12:15;12.30;99.90
45983;DHT22;31711;47.158;7.346;2023-03-19T09:14:42;12.30;99.90
45983;DHT22;31711;47.158;7.346;2023-03-19T09:17:09;12.50;99.90
45983;DHT22;31711;47.158;7.346;2023-03-19T09:19:35;12.80;99.90
45983;DHT22;31711;47.158;7.346;2023-03-19T09:22:02;12.80;99.90
45983;DHT22;31711;47.158;7.346;2023-03-19T09:24:28;12.80;99.90
45983;DHT22;31711;47.158;7.346;2023-03-19T09:26:54;12.90;99.90
45983;DHT22;31711;47.158;7.346;2023-03-19T09:29:20;13.10;99.90
45983;DHT22;31711;47.158;7.346;2023-03-19T09:31:46;13.10;99.90
45983;DHT22;31711;47.158;7.346;2023-03-19T09:34:12;13.10;99.90
45983;DHT22;31711;47.158;7.346;2023-03-19T09:36:38;12.70;99.90
45983;DHT22;31711;47.158;7.346;2023-03-19T09:39:06;13.00;99.90
45983;DHT22;31711;47.158;7.346;2023-03-19T09:41:59;13.00;99.90
45983;DHT22;31711;47.158;7.346;2023-03-19T09:44:31;12.70;99.90
45983;DHT22;31711;47.158;7.346;2023-03-19T09:47:09;12.60;99.90
45983;DHT22;31711;47.158;7.346;2023-03-19T09:49:41;12.90;99.90
45983;DHT22;31711;47.158;7.346;2023-03-19T09:54:58;13.40;99.90
45983;DHT22;31711;47.158;7.346;2023-03-19T09:57:25;13.60;99.90
45983;DHT22;31711;47.158;7.346;2023-03-19T09:59:55;13.80;99.90
45983;DHT22;31711;47.158;7.346;2023-03-19T10:12:55;13.80;99.90
45983;DHT22;31711;47.158;7.346;2023-03-19T10:15:29;13.60;99.90
45983;DHT22;31711;47.158;7.346;2023-03-19T10:21:09;13.30;99.90
45983;DHT22;31711;47.158;7.346;2023-03-19T10:26:21;12.90;99.90
45983;DHT22;31711;47.158;7.346;2023-03-19T10:28:59;13.20;99.90
45983;DHT22;31711;47.158;7.346;2023-03-19T10:31:28;13.10;99.90
45983;DHT22;31711;47.158;7.346;2023-03-19T10:36:34;13.20;99.90
45983;DHT22;31711;47.158;7.346;2023-03-19T10:39:01;13.20;99.90
45983;DHT22;31711;47.158;7.346;2023-03-19T10:41:54;13.50;99.90
45983;DHT22;31711;47.158;7.346;2023-03-19T10:44:29;13.80;99.90
45983;DHT22;31711;47.158;7.346;2023-03-19T10:47:08;13.60;99.90
45983;DHT22;31711;47.158;7.346;2023-03-19T10:49:35;13.50;99.90
45983;DHT22;31711;47.158;7.346;2023-03-19T10:52:02;13.70;99.90
45983;DHT22;31711;47.158;7.346;2023-03-19T10:54:28;14.00;99.90
45983;DHT22;31711;47.158;7.346;2023-03-19T10:56:58;14.20;99.90
45983;DHT22;31711;47.158;7.346;2023-03-19T10:59:35;14.10;99.90
45983;DHT22;31711;47.158;7.346;2023-03-19T11:02:14;14.10;99.90
45983;DHT22;31711;47.158;7.346;2023-03-19T11:04:40;14.10;99.90
45983;DHT22;31711;47.158;7.346;2023-03-19T11:07:17;14.00;99.90
45983;DHT22;31711;47.158;7.346;2023-03-19T11:09:48;13.50;99.90
45983;DHT22;31711;47.158;7.346;2023-03-19T11:14:42;13.30;99.90
45983;DHT22;31711;47.158;7.346;2023-03-19T11:17:40;13.30;99.90
45983;DHT22;31711;47.158;7.346;2023-03-19T11:22:52;13.50;99.90
45983;DHT22;31711;47.158;7.346;2023-03-19T11:25:34;13.20;99.90
45983;DHT22;31711;47.158;7.346;2023-03-19T11:28:08;13.20;99.90
45983;DHT22;31711;47.158;7.346;2023-03-19T11:36:00;13.00;99.90
45983;DHT22;31711;47.158;7.346;2023-03-19T11:38:39;12.90;99.90
45983;DHT22;31711;47.158;7.346;2023-03-19T11:43:55;12.60;99.90
45983;DHT22;31711;47.158;7.346;2023-03-19T11:46:29;12.50;99.90
45983;DHT22;31711;47.158;7.346;2023-03-19T12:08:41;12.10;99.90
45983;DHT22;31711;47.158;7.346;2023-03-19T12:11:23;11.90;99.90
45983;DHT22;31711;47.158;7.346;2023-03-19T12:14:05;11.90;99.90
45983;DHT22;31711;47.158;7.346;2023-03-19T12:27:31;11.50;99.90
45983;DHT22;31711;47.158;7.346;2023-03-19T12:32:58;11.60;99.90
45983;DHT22;31711;47.158;7.346;2023-03-19T12:35:36;11.60;99.90
45983;DHT22;31711;47.158;7.346;2023-03-19T12:41:17;11.50;99.90
45983;DHT22;31711;47.158;7.346;2023-03-19T12:43:51;11.30;99.90
45983;DHT22;31711;47.158;7.346;2023-03-19T12:46:35;11.30;99.90
45983;DHT22;31711;47.158;7.346;2023-03-19T12:49:43;11.30;99.90
45983;DHT22;31711;47.158;7.346;2023-03-19T12:52:25;11.30;99.90
45983;DHT22;31711;47.158;7.346;2023-03-19T13:03:32;11.90;99.90
45983;DHT22;31711;47.158;7.346;2023-03-19T13:06:35;12.20;99.90
45983;DHT22;31711;47.158;7.346;2023-03-19T13:09:03;12.60;99.90
45983;DHT22;31711;47.158;7.346;2023-03-19T13:11:57;12.20;99.90
45983;DHT22;31711;47.158;7.346;2023-03-19T13:19:49;12.10;99.90
45983;DHT22;31711;47.158;7.346;2023-03-19T13:22:26;11.90;99.90
45983;DHT22;31711;47.158;7.346;2023-03-19T13:24:54;11.90;99.90
45983;DHT22;31711;47.158;7.346;2023-03-19T13:27:25;11.80;99.90
45983;DHT22;31711;47.158;7.346;2023-03-19T13:32:44;11.50;99.90
45983;DHT22;31711;47.158;7.346;2023-03-19T13:40:44;11.20;99.90
45983;DHT22;31711;47.158;7.346;2023-03-19T13:46:46;11.30;99.90
45983;DHT22;31711;47.158;7.346;2023-03-19T13:48:53;11.30;99.90
45983;DHT22;31711;47.158;7.346;2023-03-19T13:53:53;11.30;99.90
45983;DHT22;31711;47.158;7.346;2023-03-19T13:56:19;11.30;99.90
45983;DHT22;31711;47.158;7.346;2023-03-19T13:58:50;11.30;99.90
45983;DHT22;31711;47.158;7.346;2023-03-19T14:04:00;11.10;99.90
45983;DHT22;31711;47.158;7.346;2023-03-19T14:06:37;11.10;99.90
45983;DHT22;31711;47.158;7.346;2023-03-19T14:09:26;11.20;99.90
45983;DHT22;31711;47.158;7.346;2023-03-19T14:11:53;11.30;99.90
45983;DHT22;31711;47.158;7.346;2023-03-19T14:14:21;11.60;99.90
45983;DHT22;31711;47.158;7.346;2023-03-19T14:16:48;11.70;99.90
45983;DHT22;31711;47.158;7.346;2023-03-19T14:19:18;11.90;99.90
45983;DHT22;31711;47.158;7.346;2023-03-19T14:22:07;12.30;99.90
45983;DHT22;31711;47.158;7.346;2023-03-19T14:24:37;12.30;99.90
45983;DHT22;31711;47.158;7.346;2023-03-19T14:27:26;12.30;99.90
45983;DHT22;31711;47.158;7.346;2023-03-19T14:29:55;12.30;99.90
45983;DHT22;31711;47.158;7.346;2023-03-19T14:32:27;12.40;99.90
45983;DHT22;31711;47.158;7.346;2023-03-19T14:34:55;12.70;99.90
45983;DHT22;31711;47.158;7.346;2023-03-19T14:37:23;12.60;99.90
45983;DHT22;31711;47.158;7.346;2023-03-19T14:40:14;12.60;99.90
45983;DHT22;31711;47.158;7.346;2023-03-19T14:51:15;12.90;99.90
45983;DHT22;31711;47.158;7.346;2023-03-19T14:53:51;12.40;99.90
45983;DHT22;31711;47.158;7.346;2023-03-19T14:56:29;12.20;99.90
45983;DHT22;31711;47.158;7.346;2023-03-19T14:58:57;12.20;99.90
45983;DHT22;31711;47.158;7.346;2023-03-19T15:01:29;12.30;99.90
45983;DHT22;31711;47.158;7.346;2023-03-19T15:04:09;12.40;99.90
45983;DHT22;31711;47.158;7.346;2023-03-19T15:06:41;12.50;99.90
45983;DHT22;31711;47.158;7.346;2023-03-19T15:09:18;12.50;99.90
45983;DHT22;31711;47.158;7.346;2023-03-19T15:12:09;12.50;99.90
45983;DHT22;31711;47.158;7.346;2023-03-19T15:18:08;12.20;99.90
45983;DHT22;31711;47.158;7.346;2023-03-19T15:20:45;12.20;99.90
45983;DHT22;31711;47.158;7.346;2023-03-19T15:23:19;12.10;99.90
45983;DHT22;31711;47.158;7.346;2023-03-19T15:25:48;12.10;99.90
45983;DHT22;31711;47.158;7.346;2023-03-19T15:28:16;12.10;99.90
45983;DHT22;31711;47.158;7.346;2023-03-19T15:30:43;12.20;99.90
45983;DHT22;31711;47.158;7.346;2023-03-19T15:33:19;12.10;99.90
45983;DHT22;31711;47.158;7.346;2023-03-19T15:35:56;11.90;99.90
45983;DHT22;31711;47.158;7.346;2023-03-19T15:38:25;11.90;99.90
45983;DHT22;31711;47.158;7.346;2023-03-19T15:40:54;11.80;99.90
45983;DHT22;31711;47.158;7.346;2023-03-19T15:43:20;11.80;99.90
45983;DHT22;31711;47.158;7.346;2023-03-19T15:45:49;11.60;99.90
45983;DHT22;31711;47.158;7.346;2023-03-19T15:48:17;11.50;99.90
45983;DHT22;31711;47.158;7.346;2023-03-19T15:50:48;11.40;99.90
45983;DHT22;31711;47.158;7.346;2023-03-19T15:53:19;11.20;99.90
45983;DHT22;31711;47.158;7.346;2023-03-19T15:55:48;11.20;99.90
45983;DHT22;31711;47.158;7.346;2023-03-19T15:58:19;11.10;99.90
45983;DHT22;31711;47.158;7.346;2023-03-19T16:00:46;11.10;99.90
45983;DHT22;31711;47.158;7.346;2023-03-19T16:03:17;11.20;99.90
45983;DHT22;31711;47.158;7.346;2023-03-19T16:05:44;11.10;99.90
45983;DHT22;31711;47.158;7.346;2023-03-19T16:08:24;11.00;99.90
45983;DHT22;31711;47.158;7.346;2023-03-19T16:10:51;11.00;99.90
45983;DHT22;31711;47.158;7.346;2023-03-19T16:13:29;10.90;99.90
45983;DHT22;31711;47.158;7.346;2023-03-19T16:16:11;10.70;99.90
45983;DHT22;31711;47.158;7.346;2023-03-19T16:18:51;10.50;99.90
45983;DHT22;31711;47.158;7.346;2023-03-19T16:21:27;10.40;99.90
45983;DHT22;31711;47.158;7.346;2023-03-19T16:24:46;10.40;99.90
45983;DHT22;31711;47.158;7.346;2023-03-19T16:26:50;10.40;99.90
45983;DHT22;31711;47.158;7.346;2023-03-19T16:29:23;10.50;99.90
45983;DHT22;31711;47.158;7.346;2023-03-19T16:32:02;10.50;99.90
45983;DHT22;31711;47.158;7.346;2023-03-19T16:37:00;10.50;99.90
45983;DHT22;31711;47.158;7.346;2023-03-19T16:39:35;10.50;99.90
45983;DHT22;31711;47.158;7.346;2023-03-19T16:47:44;10.40;99.90
45983;DHT22;31711;47.158;7.346;2023-03-19T16:50:11;10.30;99.90
45983;DHT22;31711;47.158;7.346;2023-03-19T16:52:38;10.40;99.90
45983;DHT22;31711;47.158;7.346;2023-03-19T16:55:16;10.30;99.90
45983;DHT22;31711;47.158;7.346;2023-03-19T16:57:43;10.30;99.90
45983;DHT22;31711;47.158;7.346;2023-03-19T17:00:12;10.10;99.90
45983;DHT22;31711;47.158;7.346;2023-03-19T17:02:38;10.20;99.90
45983;DHT22;31711;47.158;7.346;2023-03-19T17:05:14;10.20;99.90
45983;DHT22;31711;47.158;7.346;2023-03-19T17:07:41;10.20;99.90
45983;DHT22;31711;47.158;7.346;2023-03-19T17:10:18;10.20;99.90
45983;DHT22;31711;47.158;7.346;2023-03-19T17:12:48;10.10;99.90
45983;DHT22;31711;47.158;7.346;2023-03-19T17:15:35;10.00;99.90
45983;DHT22;31711;47.158;7.346;2023-03-19T17:18:10;10.10;99.90
45983;DHT22;31711;47.158;7.346;2023-03-19T17:20:51;10.00;99.90
45983;DHT22;31711;47.158;7.346;2023-03-19T17:23:17;10.00;99.90
45983;DHT22;31711;47.158;7.346;2023-03-19T17:25:43;9.80;99.90
45983;DHT22;31711;47.158;7.346;2023-03-19T17:28:10;9.60;99.90
45983;DHT22;31711;47.158;7.346;2023-03-19T17:30:37;9.70;99.90
45983;DHT22;31711;47.158;7.346;2023-03-19T17:33:03;9.70;99.90
45983;DHT22;31711;47.158;7.346;2023-03-19T17:35:29;9.60;99.90
45983;DHT22;31711;47.158;7.346;2023-03-19T17:37:55;9.60;99.90
45983;DHT22;31711;47.158;7.346;2023-03-19T17:40:24;9.60;99.90
45983;DHT22;31711;47.158;7.346;2023-03-19T17:42:52;9.60;99.90
45983;DHT22;31711;47.158;7.346;2023-03-19T17:45:20;9.50;99.90
45983;DHT22;31711;47.158;7.346;2023-03-19T17:47:51;9.50;99.90
45983;DHT22;31711;47.158;7.346;2023-03-19T17:50:24;9.50;99.90
45983;DHT22;31711;47.158;7.346;2023-03-19T17:52:51;9.50;99.90
45983;DHT22;31711;47.158;7.346;2023-03-19T17:55:20;9.50;99.90
45983;DHT22;31711;47.158;7.346;2023-03-19T17:57:46;9.50;99.90
45983;DHT22;31711;47.158;7.346;2023-03-19T18:00:14;9.50;99.90